Wardle, United Kingdom
Current Conditions -  °F | °C
As of 11:20 PM on Wednesday 26 Nov 2014 (Local Time) from EGCC Reporting Station
Haze Haze  
Wind Chill:   Ceiling: 1900
Heat Index:   Visibility: 3mi
Dew Point:   Wind: 2mph
Humidity: 93%   Direction: 30°NNE
Pressure: 29.74"   Gusts: NA
Location:  53.65°N, 2.13°W
Report Text: EGCC 262320Z AUTO 03002KT 5000 BR BKN019 OVC025 07/06 Q1007
Loading
Personal Weather Stations






























Interactive Weather Map New forecast layout! Learn more

10-Day Weather Forecast

Advertisements
Track Severe Weather on mobile